createdAt,value
2022-08-09T00:00:00.668Z,58.32
2022-08-09T00:02:32.135Z,58.15
2022-08-09T00:05:03.520Z,58.28
2022-08-09T00:07:46.870Z,58.34
2022-08-09T00:10:14.421Z,58.09
2022-08-09T00:12:52.651Z,58.30
2022-08-09T00:15:20.541Z,58.92
2022-08-09T00:18:10.913Z,58.64
2022-08-09T00:20:42.229Z,57.96
2022-08-09T00:23:57.861Z,58.56
2022-08-09T00:26:05.089Z,58.84
2022-08-09T00:28:34.514Z,58.78
2022-08-09T00:31:02.214Z,59.37
2022-08-09T00:33:51.515Z,58.96
2022-08-09T00:36:19.151Z,59.41
2022-08-09T00:38:46.654Z,59.47
2022-08-09T00:44:10.864Z,58.85
2022-08-09T00:44:19.578Z,59.80
2022-08-09T00:46:57.613Z,59.85
2022-08-09T00:49:31.967Z,59.80
2022-08-09T00:52:05.359Z,59.87
2022-08-09T00:54:35.104Z,60.53
2022-08-09T00:57:10.455Z,60.80
2022-08-09T00:59:40.995Z,60.97
2022-08-09T01:02:09.160Z,61.22
2022-08-09T01:04:38.149Z,60.91
2022-08-09T01:07:05.454Z,61.07
2022-08-09T01:09:39.524Z,61.43
2022-08-09T01:12:08.505Z,61.29
2022-08-09T01:14:38.773Z,61.06
2022-08-09T01:17:08.877Z,60.37
2022-08-09T01:19:39.882Z,59.89
2022-08-09T01:22:19.206Z,60.11
2022-08-09T01:24:50.380Z,60.03
2022-08-09T01:27:19.624Z,60.05
2022-08-09T01:29:55.486Z,60.06
2022-08-09T01:32:31.431Z,59.45
2022-08-09T01:35:18.297Z,60.54
2022-08-09T01:38:09.682Z,60.03
2022-08-09T01:40:38.206Z,60.35
2022-08-09T01:43:07.155Z,59.98
2022-08-09T01:45:35.565Z,59.83
2022-08-09T01:48:15.792Z,59.59
2022-08-09T01:50:43.103Z,59.47
2022-08-09T01:53:19.419Z,59.55
2022-08-09T01:55:47.500Z,60.11
2022-08-09T01:58:14.774Z,60.52
2022-08-09T02:00:43.126Z,60.31
2022-08-09T02:03:13.930Z,60.70
2022-08-09T02:06:03.878Z,60.99
2022-08-09T02:08:38.674Z,61.28
2022-08-09T02:11:17.281Z,61.19
2022-08-09T02:14:06.377Z,60.91
2022-08-09T02:16:35.276Z,61.27
2022-08-09T02:19:19.338Z,61.64
2022-08-09T02:21:46.633Z,61.73
2022-08-09T02:24:26.312Z,61.77
2022-08-09T02:26:54.182Z,62.19
2022-08-09T02:29:21.935Z,62.20
2022-08-09T02:31:49.200Z,62.19
2022-08-09T02:34:40.058Z,62.17
2022-08-09T02:37:03.802Z,62.21
2022-08-09T02:39:34.114Z,62.12
2022-08-09T02:42:09.449Z,61.93
2022-08-09T02:44:36.747Z,62.20
2022-08-09T02:47:04.914Z,62.62
2022-08-09T02:49:38.897Z,62.87
2022-08-09T02:52:08.777Z,63.14
2022-08-09T02:54:36.051Z,63.00
2022-08-09T02:57:23.112Z,62.79
2022-08-09T03:00:21.375Z,62.83
2022-08-09T03:02:38.478Z,63.06
2022-08-09T03:05:25.434Z,62.86
2022-08-09T03:07:55.183Z,62.88
2022-08-09T03:10:22.858Z,63.13
2022-08-09T03:12:52.199Z,62.96
2022-08-09T03:15:20.049Z,63.15
2022-08-09T03:17:47.312Z,63.56
2022-08-09T03:20:29.458Z,63.61
2022-08-09T03:22:58.323Z,63.18
2022-08-09T03:26:03.153Z,63.75
2022-08-09T03:28:25.234Z,64.48
2022-08-09T03:30:52.710Z,64.43
2022-08-09T03:33:19.971Z,64.92
2022-08-09T03:36:12.848Z,64.45
2022-08-09T03:38:34.467Z,64.55
2022-08-09T03:41:02.748Z,65.01
2022-08-09T03:43:31.558Z,65.77
2022-08-09T03:46:03.179Z,65.49
2022-08-09T03:48:51.517Z,65.38
2022-08-09T03:51:55.924Z,65.47
2022-08-09T03:54:06.609Z,65.41
2022-08-09T03:56:38.491Z,65.72
2022-08-09T03:59:08.731Z,65.39
2022-08-09T04:01:44.304Z,65.48
2022-08-09T04:04:14.700Z,65.05
2022-08-09T04:06:48.756Z,65.57
2022-08-09T04:09:48.330Z,64.89
2022-08-09T04:12:03.913Z,65.48
2022-08-09T04:14:59.211Z,65.54
2022-08-09T04:17:29.950Z,65.26
2022-08-09T04:19:58.641Z,66.14
2022-08-09T04:22:30.262Z,66.43
2022-08-09T04:24:59.208Z,66.15
2022-08-09T04:27:26.503Z,66.67
2022-08-09T04:29:56.413Z,67.08
2022-08-09T04:32:33.704Z,67.64
2022-08-09T04:35:04.339Z,68.11
2022-08-09T04:37:45.192Z,68.07
2022-08-09T04:40:19.092Z,68.54
2022-08-09T04:42:48.432Z,68.48
2022-08-09T04:45:15.978Z,67.80
2022-08-09T04:47:45.152Z,67.87
2022-08-09T04:50:34.982Z,67.62
2022-08-09T04:53:05.248Z,67.52
2022-08-09T04:55:43.601Z,66.86
2022-08-09T04:58:26.473Z,67.38
2022-08-09T05:00:54.400Z,66.62
2022-08-09T05:03:39.845Z,66.41
2022-08-09T05:06:09.204Z,65.64
2022-08-09T05:08:36.487Z,65.36
2022-08-09T05:11:03.752Z,65.06
2022-08-09T05:13:38.768Z,63.58
2022-08-09T05:16:06.398Z,62.69
2022-08-09T05:18:37.643Z,62.84
2022-08-09T05:21:23.100Z,62.02
2022-08-09T05:23:59.708Z,61.58
2022-08-09T05:26:36.714Z,60.99
2022-08-09T05:29:17.560Z,60.98
2022-08-09T05:31:56.961Z,60.53
2022-08-09T05:34:26.046Z,59.82
2022-08-09T05:36:58.481Z,60.39
2022-08-09T05:39:36.108Z,59.90
2022-08-09T05:42:10.321Z,59.97
2022-08-09T05:44:50.431Z,60.13
2022-08-09T05:47:18.645Z,59.66
2022-08-09T05:50:26.696Z,60.26
2022-08-09T05:52:33.403Z,60.57
2022-08-09T05:55:03.168Z,61.51
2022-08-09T05:57:55.840Z,61.17
2022-08-09T06:00:21.594Z,60.62
2022-08-09T06:02:49.539Z,60.17
2022-08-09T06:05:30.579Z,61.62
2022-08-09T06:08:11.115Z,60.25
2022-08-09T06:10:38.696Z,59.63
2022-08-09T06:13:18.613Z,60.44
2022-08-09T06:15:47.745Z,59.39
2022-08-09T06:18:19.135Z,60.09
2022-08-09T06:20:54.217Z,60.02
2022-08-09T06:23:23.929Z,59.69
2022-08-09T06:26:11.137Z,60.97
2022-08-09T06:28:38.521Z,59.71
2022-08-09T06:31:10.671Z,59.66
2022-08-09T06:33:41.413Z,60.90
2022-08-09T06:36:09.243Z,59.57
2022-08-09T06:38:37.390Z,60.93
2022-08-09T06:41:04.851Z,61.18
2022-08-09T06:43:45.730Z,60.47
2022-08-09T06:46:13.199Z,60.71
2022-08-09T06:49:00.595Z,59.53
2022-08-09T06:51:28.282Z,59.31
2022-08-09T06:53:55.633Z,58.53
2022-08-09T06:56:30.950Z,58.08
2022-08-09T07:00:52.510Z,58.93
2022-08-09T07:01:57.932Z,58.79
2022-08-09T07:04:27.249Z,58.15
2022-08-09T07:07:00.424Z,58.04
2022-08-09T07:09:55.069Z,58.90
2022-08-09T07:12:18.004Z,59.93
2022-08-09T07:14:45.837Z,58.50
2022-08-09T07:17:18.818Z,56.69
2022-08-09T07:19:48.166Z,58.01
2022-08-09T07:22:18.415Z,58.63
2022-08-09T07:24:49.400Z,57.77
2022-08-09T07:27:26.156Z,57.96
2022-08-09T07:30:01.583Z,58.04
2022-08-09T07:32:32.905Z,57.33
2022-08-09T07:35:01.070Z,58.03
2022-08-09T07:37:30.180Z,56.58
2022-08-09T07:40:12.955Z,56.99
2022-08-09T07:42:40.696Z,55.81
2022-08-09T07:45:14.902Z,56.31
2022-08-09T07:48:00.771Z,56.53
2022-08-09T07:50:34.806Z,56.28
2022-08-09T07:53:04.866Z,56.01
2022-08-09T07:55:41.520Z,56.47
2022-08-09T07:58:21.593Z,55.07
2022-08-09T08:00:55.754Z,55.45
2022-08-09T08:03:37.031Z,56.20
2022-08-09T08:06:04.436Z,56.16
2022-08-09T08:09:01.276Z,56.14
2022-08-09T08:12:10.577Z,55.48
2022-08-09T08:14:06.728Z,55.45
2022-08-09T08:16:34.541Z,55.16
2022-08-09T08:19:03.118Z,54.67
2022-08-09T08:21:31.414Z,54.57
2022-08-09T08:24:00.941Z,54.54
2022-08-09T08:26:41.736Z,54.08
2022-08-09T08:29:14.824Z,54.46
2022-08-09T08:32:04.432Z,54.75
2022-08-09T08:34:34.364Z,55.08
2022-08-09T08:37:02.270Z,55.17
2022-08-09T08:39:47.853Z,54.33
2022-08-09T08:42:17.181Z,54.91
2022-08-09T08:44:44.459Z,54.44
2022-08-09T08:47:13.628Z,53.46
2022-08-09T08:49:48.310Z,53.52
2022-08-09T08:52:50.417Z,53.05
2022-08-09T08:55:05.949Z,52.57
2022-08-09T08:57:34.939Z,51.68
2022-08-09T09:00:12.842Z,51.20
2022-08-09T09:02:50.042Z,51.18
2022-08-09T09:05:20.281Z,52.05
2022-08-09T09:08:00.561Z,51.72
2022-08-09T09:10:27.824Z,50.95
2022-08-09T09:12:55.550Z,50.78
2022-08-09T09:15:28.277Z,50.39
2022-08-09T09:17:55.981Z,50.74
2022-08-09T09:20:23.270Z,50.10
2022-08-09T09:22:53.177Z,50.22
2022-08-09T09:26:04.291Z,50.02
2022-08-09T09:28:10.931Z,50.38
2022-08-09T09:30:40.560Z,48.28
2022-08-09T09:33:16.470Z,49.01
2022-08-09T09:35:47.991Z,49.11
2022-08-09T09:38:36.579Z,49.27
2022-08-09T09:41:04.589Z,49.20
2022-08-09T09:43:41.460Z,48.45
2022-08-09T09:49:06.462Z,46.82
2022-08-09T09:51:40.125Z,47.05
2022-08-09T09:54:17.109Z,45.24
2022-08-09T09:56:53.323Z,43.28
2022-08-09T09:59:35.480Z,45.15
2022-08-09T10:02:03.017Z,44.61
2022-08-09T10:04:31.355Z,44.27
2022-08-09T10:06:58.941Z,45.62
2022-08-09T10:09:31.009Z,45.17
2022-08-09T10:12:12.182Z,45.26
2022-08-09T10:14:48.445Z,45.08
2022-08-09T10:17:24.306Z,44.73
2022-08-09T10:20:03.708Z,44.73
2022-08-09T10:22:33.729Z,44.30
2022-08-09T10:25:03.693Z,44.77
2022-08-09T10:27:45.292Z,44.21
2022-08-09T10:34:04.895Z,42.96
2022-08-09T10:36:01.227Z,42.10
2022-08-09T10:38:39.640Z,41.97
2022-08-09T10:41:16.984Z,43.94
2022-08-09T10:43:46.956Z,43.39
2022-08-09T10:46:23.418Z,42.02
2022-08-09T10:48:54.151Z,42.49
2022-08-09T10:51:21.441Z,42.33
2022-08-09T10:53:57.212Z,43.07
2022-08-09T10:56:24.490Z,41.70
2022-08-09T10:58:54.108Z,41.76
2022-08-09T11:03:13.479Z,41.43
2022-08-09T11:04:27.951Z,40.89
2022-08-09T11:06:56.015Z,41.59
2022-08-09T11:09:26.827Z,40.65
2022-08-09T11:12:00.962Z,40.93
2022-08-09T11:14:32.502Z,41.07
2022-08-09T11:16:59.771Z,40.97
2022-08-09T11:20:10.668Z,42.63
2022-08-09T11:22:24.254Z,41.22
2022-08-09T11:24:53.116Z,42.16
2022-08-09T11:27:52.765Z,40.82
2022-08-09T11:30:32.381Z,41.02
2022-08-09T11:32:55.271Z,40.75
2022-08-09T11:35:35.169Z,39.47
2022-08-09T11:38:13.575Z,40.36
2022-08-09T11:40:42.192Z,40.21
2022-08-09T11:43:11.086Z,38.77
2022-08-09T11:45:42.284Z,39.01
2022-08-09T11:48:19.350Z,39.13
2022-08-09T11:52:49.440Z,38.21
2022-08-09T11:53:58.973Z,37.51
2022-08-09T11:56:42.056Z,37.86
2022-08-09T11:59:18.429Z,38.02
2022-08-09T12:02:18.044Z,37.56
2022-08-09T12:04:37.303Z,39.08
2022-08-09T12:07:08.277Z,39.30
2022-08-09T12:09:36.167Z,39.28
2022-08-09T12:12:04.220Z,39.17
2022-08-09T12:14:40.666Z,39.40
2022-08-09T12:17:33.845Z,37.81
2022-08-09T12:20:06.130Z,37.93
2022-08-09T12:22:33.507Z,36.99
2022-08-09T12:25:00.949Z,37.64
2022-08-09T12:29:11.075Z,37.09
2022-08-09T12:30:36.760Z,36.93
2022-08-09T12:33:03.033Z,36.67
2022-08-09T12:35:34.765Z,36.39
2022-08-09T12:38:07.337Z,37.51
2022-08-09T12:40:35.586Z,38.11
2022-08-09T12:43:03.222Z,37.02
2022-08-09T12:45:33.976Z,35.77
2022-08-09T12:48:05.674Z,36.59
2022-08-09T12:50:38.255Z,36.36
2022-08-09T12:53:17.869Z,35.06
2022-08-09T12:56:15.561Z,35.11
2022-08-09T12:58:33.895Z,34.08
2022-08-09T13:01:01.363Z,35.08
2022-08-09T13:03:53.444Z,33.45
2022-08-09T13:06:21.662Z,32.97
2022-08-09T13:08:49.368Z,33.52
2022-08-09T13:11:25.953Z,35.07
2022-08-09T13:14:37.880Z,33.95
2022-08-09T13:16:40.844Z,34.01
2022-08-09T13:19:13.275Z,34.02
2022-08-09T13:22:35.718Z,34.61
2022-08-09T13:24:53.482Z,34.48
2022-08-09T13:27:15.050Z,33.00
2022-08-09T13:30:04.039Z,33.38
2022-08-09T13:32:30.950Z,33.04
2022-08-09T13:34:59.296Z,32.39
2022-08-09T13:37:52.465Z,32.71
2022-08-09T13:41:56.541Z,33.39
2022-08-09T13:43:05.054Z,32.39
2022-08-09T13:46:42.739Z,33.17
2022-08-09T13:48:19.930Z,32.12
2022-08-09T13:50:48.237Z,31.60
2022-08-09T13:53:16.095Z,30.74
2022-08-09T13:55:44.861Z,29.59
2022-08-09T13:58:15.137Z,31.43
2022-08-09T14:00:49.830Z,31.37
2022-08-09T14:04:01.935Z,31.06
2022-08-09T14:06:14.764Z,30.59
2022-08-09T14:08:47.015Z,31.41
2022-08-09T14:11:16.162Z,29.60
2022-08-09T14:14:24.209Z,29.76
2022-08-09T14:16:31.093Z,29.86
2022-08-09T14:18:59.528Z,30.77
2022-08-09T14:21:29.411Z,29.40
2022-08-09T14:24:01.562Z,30.61
2022-08-09T14:26:37.963Z,28.52
2022-08-09T14:29:07.953Z,28.40
2022-08-09T14:31:53.678Z,29.43
2022-08-09T14:34:27.308Z,28.31
2022-08-09T14:36:59.763Z,26.93
2022-08-09T14:39:47.537Z,27.91
2022-08-09T14:42:30.060Z,27.56
2022-08-09T14:44:59.497Z,28.28
2022-08-09T14:47:44.908Z,28.41
2022-08-09T14:50:17.422Z,28.50
2022-08-09T14:52:50.680Z,27.97
2022-08-09T14:55:19.937Z,28.23
2022-08-09T14:57:48.868Z,25.95
2022-08-09T15:00:16.399Z,26.07
2022-08-09T15:02:47.544Z,28.42
2022-08-09T15:05:18.932Z,28.55
2022-08-09T15:07:56.140Z,28.71
2022-08-09T15:10:24.932Z,28.32
2022-08-09T15:12:52.688Z,28.07
2022-08-09T15:15:20.510Z,27.82
2022-08-09T15:17:51.782Z,28.43
2022-08-09T15:21:55.733Z,28.43
2022-08-09T15:24:01.830Z,27.35
2022-08-09T15:25:55.668Z,27.40
2022-08-09T15:28:28.151Z,28.39
2022-08-09T15:31:08.740Z,27.56
2022-08-09T15:34:17.753Z,27.59
2022-08-09T15:36:28.732Z,27.32
2022-08-09T15:38:58.868Z,27.08
2022-08-09T15:41:31.995Z,27.51
2022-08-09T15:43:59.829Z,27.40
2022-08-09T15:46:33.084Z,26.99
2022-08-09T15:49:20.707Z,26.42
2022-08-09T15:52:04.740Z,26.62
2022-08-09T15:54:46.100Z,25.90
2022-08-09T15:57:19.338Z,25.04
2022-08-09T16:00:01.261Z,26.16
2022-08-09T16:02:28.531Z,27.33
2022-08-09T16:04:56.348Z,27.06
2022-08-09T16:07:23.630Z,27.07
2022-08-09T16:10:04.534Z,27.84
2022-08-09T16:12:32.979Z,28.26
2022-08-09T16:15:00.552Z,27.37
2022-08-09T16:17:28.610Z,26.92
2022-08-09T16:20:04.033Z,27.29
2022-08-09T16:22:32.731Z,26.69
2022-08-09T16:25:01.665Z,26.44
2022-08-09T16:27:29.644Z,27.09
2022-08-09T16:30:01.014Z,27.15
2022-08-09T16:32:53.413Z,27.51
2022-08-09T16:35:39.185Z,27.94
2022-08-09T16:38:04.262Z,27.04
2022-08-09T16:40:40.610Z,26.40
2022-08-09T16:43:08.566Z,27.33
2022-08-09T16:45:37.184Z,28.42
2022-08-09T16:48:50.191Z,28.55
2022-08-09T16:51:07.668Z,29.44
2022-08-09T16:53:36.069Z,29.31
2022-08-09T16:56:09.346Z,29.70
2022-08-09T16:58:39.598Z,29.94
2022-08-09T17:01:09.800Z,29.84
2022-08-09T17:03:37.811Z,30.28
2022-08-09T17:06:28.399Z,29.69
2022-08-09T17:09:00.135Z,29.79
2022-08-09T17:11:40.033Z,29.73
2022-08-09T17:14:26.499Z,29.84
2022-08-09T17:16:55.548Z,31.04
2022-08-09T17:19:22.843Z,31.06
2022-08-09T17:21:55.593Z,32.06
2022-08-09T17:24:30.439Z,32.83
2022-08-09T17:26:58.428Z,33.07
2022-08-09T17:29:31.866Z,32.74
2022-08-09T17:32:05.404Z,33.07
2022-08-09T17:35:07.453Z,33.16
2022-08-09T17:37:21.156Z,33.42
2022-08-09T17:39:52.558Z,32.73
2022-08-09T17:42:41.411Z,32.80
2022-08-09T17:45:15.981Z,32.69
2022-08-09T17:47:54.967Z,33.25
2022-08-09T17:50:36.151Z,33.78
2022-08-09T17:53:04.708Z,33.88
2022-08-09T17:55:48.535Z,34.14
2022-08-09T17:58:16.982Z,34.27
2022-08-09T18:00:48.129Z,34.04
2022-08-09T18:03:17.940Z,33.94
2022-08-09T18:05:52.931Z,33.80
2022-08-09T18:08:21.758Z,33.40
2022-08-09T18:11:00.648Z,33.48
2022-08-09T18:13:43.432Z,32.94
2022-08-09T18:16:16.505Z,32.54
2022-08-09T18:18:49.261Z,32.33
2022-08-09T18:21:22.699Z,32.44
2022-08-09T18:24:10.223Z,32.34
2022-08-09T18:26:38.139Z,32.59
2022-08-09T18:30:38.264Z,32.56
2022-08-09T18:31:56.154Z,32.56
2022-08-09T18:34:24.310Z,32.06
2022-08-09T18:36:53.388Z,32.57
2022-08-09T18:39:20.963Z,32.41
2022-08-09T18:41:53.372Z,31.96
2022-08-09T18:44:22.878Z,32.16
2022-08-09T18:47:04.927Z,32.42
2022-08-09T18:49:41.805Z,32.44
2022-08-09T18:52:11.703Z,32.31
2022-08-09T18:54:39.270Z,32.42
2022-08-09T18:57:13.144Z,32.66
2022-08-09T18:59:51.305Z,32.46
2022-08-09T19:02:23.951Z,32.52
2022-08-09T19:05:15.288Z,32.61
2022-08-09T19:08:04.747Z,33.07
2022-08-09T19:10:37.258Z,33.00
2022-08-09T19:13:16.108Z,32.76
2022-08-09T19:15:50.109Z,34.01
2022-08-09T19:18:33.160Z,33.70
2022-08-09T19:21:05.596Z,33.49
2022-08-09T19:24:35.866Z,34.16
2022-08-09T19:26:31.152Z,35.13
2022-08-09T19:29:01.547Z,34.49
2022-08-09T19:31:30.363Z,35.15
2022-08-09T19:33:58.131Z,35.72
2022-08-09T19:36:30.872Z,35.76
2022-08-09T19:39:01.262Z,36.38
2022-08-09T19:41:35.612Z,36.67
2022-08-09T19:44:12.684Z,36.92
2022-08-09T19:46:50.304Z,36.77
2022-08-09T19:50:08.111Z,37.13
2022-08-09T19:52:07.820Z,37.11
2022-08-09T19:54:35.677Z,37.55
2022-08-09T19:57:02.969Z,38.06
2022-08-09T19:59:57.039Z,38.11
2022-08-09T20:04:13.909Z,37.91
2022-08-09T20:05:10.374Z,38.40
2022-08-09T20:07:56.643Z,38.39
2022-08-09T20:10:34.151Z,38.99
2022-08-09T20:13:02.282Z,39.92
2022-08-09T20:16:37.922Z,39.58
2022-08-09T20:18:17.037Z,39.88
2022-08-09T20:20:44.544Z,40.12
2022-08-09T20:23:11.825Z,40.76
2022-08-09T20:25:51.668Z,40.54
2022-08-09T20:28:27.475Z,40.61
2022-08-09T20:31:02.641Z,40.83
2022-08-09T20:33:41.146Z,41.23
2022-08-09T20:36:11.531Z,41.53
2022-08-09T20:39:07.125Z,41.72
2022-08-09T20:41:34.712Z,42.08
2022-08-09T20:44:04.649Z,42.07
2022-08-09T20:46:44.248Z,42.74
2022-08-09T20:49:12.415Z,42.19
2022-08-09T20:51:41.638Z,42.69
2022-08-09T20:54:12.719Z,42.82
2022-08-09T20:56:46.927Z,42.82
2022-08-09T20:59:16.903Z,42.76
2022-08-09T21:01:51.552Z,42.84
2022-08-09T21:05:55.221Z,43.23
2022-08-09T21:07:11.312Z,43.44
2022-08-09T21:09:41.837Z,42.97
2022-08-09T21:14:41.894Z,43.17
2022-08-09T21:18:21.219Z,42.98
2022-08-09T21:20:18.638Z,43.86
2022-08-09T21:22:46.794Z,43.38
2022-08-09T21:25:14.552Z,43.46
2022-08-09T21:27:50.982Z,43.57
2022-08-09T21:30:22.513Z,43.86
2022-08-09T21:32:49.958Z,43.56
2022-08-09T21:35:17.541Z,44.11
2022-08-09T21:37:58.731Z,44.40
2022-08-09T21:40:30.218Z,44.44
2022-08-09T21:42:57.845Z,44.43
2022-08-09T21:45:25.515Z,44.40
2022-08-09T21:47:52.856Z,44.45
2022-08-09T21:50:35.854Z,44.57
2022-08-09T21:53:05.928Z,44.22
2022-08-09T21:55:34.117Z,44.73
2022-08-09T21:58:01.840Z,44.36
2022-08-09T22:00:32.724Z,44.37
2022-08-09T22:03:00.608Z,45.10
2022-08-09T22:05:36.771Z,44.79
2022-08-09T22:08:05.089Z,44.68
2022-08-09T22:10:32.379Z,44.71
2022-08-09T22:13:07.629Z,44.45
2022-08-09T22:15:38.651Z,44.64
2022-08-09T22:18:11.975Z,44.73
2022-08-09T22:20:39.682Z,44.96
2022-08-09T22:23:10.575Z,44.79
2022-08-09T22:26:07.454Z,45.05
2022-08-09T22:28:32.974Z,45.30
2022-08-09T22:31:00.621Z,45.46
2022-08-09T22:33:37.673Z,45.50
2022-08-09T22:36:19.345Z,45.69
2022-08-09T22:38:46.959Z,45.78
2022-08-09T22:41:14.234Z,46.23
2022-08-09T22:44:01.872Z,46.05
2022-08-09T22:48:15.519Z,46.38
2022-08-09T22:49:15.969Z,46.17
2022-08-09T22:51:49.446Z,46.30
2022-08-09T22:54:26.865Z,46.28
2022-08-09T22:56:57.193Z,46.43
2022-08-09T22:59:58.413Z,46.47
2022-08-09T23:02:15.137Z,46.29
2022-08-09T23:04:43.316Z,45.97
2022-08-09T23:08:01.488Z,46.30
2022-08-09T23:10:08.820Z,46.57
2022-08-09T23:12:36.094Z,46.40
2022-08-09T23:15:03.385Z,47.11
2022-08-09T23:17:30.796Z,47.36
2022-08-09T23:20:06.628Z,47.60
2022-08-09T23:22:35.872Z,47.46
2022-08-09T23:25:05.255Z,47.93
2022-08-09T23:27:32.821Z,48.39
2022-08-09T23:30:00.300Z,48.21
2022-08-09T23:32:27.574Z,48.42
2022-08-09T23:34:54.843Z,48.28
2022-08-09T23:37:25.425Z,47.83
2022-08-09T23:39:52.973Z,47.80
2022-08-09T23:42:20.292Z,48.30
2022-08-09T23:44:47.570Z,48.38
2022-08-09T23:47:14.862Z,48.48
2022-08-09T23:49:42.157Z,48.71
2022-08-09T23:52:09.436Z,48.86
2022-08-09T23:54:38.685Z,49.33
2022-08-09T23:57:11.683Z,49.43
2022-08-09T23:59:41.736Z,49.61
